createdAt,value
2018-08-24T00:02:11.600Z,12.20
2018-08-24T00:04:40.091Z,12.58
2018-08-24T00:07:09.042Z,12.33
2018-08-24T00:09:37.465Z,12.40
2018-08-24T00:12:06.066Z,12.95
2018-08-24T00:14:34.785Z,12.60
2018-08-24T00:17:03.888Z,12.37
2018-08-24T00:19:32.352Z,12.30
2018-08-24T00:22:00.741Z,11.78
2018-08-24T00:24:29.736Z,13.58
2018-08-24T00:26:58.828Z,11.97
2018-08-24T00:29:27.487Z,11.90
2018-08-24T00:31:56.076Z,11.25
2018-08-24T00:34:24.732Z,11.03
2018-08-24T00:36:54.393Z,10.20
2018-08-24T00:39:23.144Z,11.50
2018-08-24T00:41:51.837Z,10.60
2018-08-24T00:44:20.360Z,11.78
2018-08-24T00:46:48.775Z,10.18
2018-08-24T00:49:17.212Z,11.40
2018-08-24T00:51:45.694Z,10.58
2018-08-24T00:54:14.091Z,10.78
2018-08-24T00:56:42.468Z,10.68
2018-08-24T00:59:11.000Z,9.50
2018-08-24T01:01:39.474Z,10.50
2018-08-24T01:04:08.084Z,10.45
2018-08-24T01:06:36.492Z,10.25
2018-08-24T01:09:07.288Z,9.70
2018-08-24T01:11:41.252Z,10.03
2018-08-24T01:14:09.799Z,10.03
2018-08-24T01:16:43.705Z,10.05
2018-08-24T01:19:12.204Z,8.98
2018-08-24T01:21:40.792Z,9.45
2018-08-24T01:24:09.317Z,9.43
2018-08-24T01:26:37.951Z,9.68
2018-08-24T01:29:06.405Z,9.40
2018-08-24T01:31:34.892Z,10.23
2018-08-24T01:34:03.377Z,9.80
2018-08-24T01:36:32.056Z,9.73
2018-08-24T01:39:00.773Z,8.60
2018-08-24T01:41:30.137Z,9.40
2018-08-24T01:43:58.569Z,8.35
2018-08-24T01:46:27.092Z,8.75
2018-08-24T01:48:55.680Z,8.83
2018-08-24T01:51:24.554Z,8.95
2018-08-24T01:53:53.064Z,8.80
2018-08-24T01:56:21.736Z,8.68
2018-08-24T01:58:51.671Z,10.38
2018-08-24T02:01:20.699Z,8.60
2018-08-24T02:03:49.931Z,8.25
2018-08-24T02:06:18.452Z,8.85
2018-08-24T02:08:46.845Z,8.05
2018-08-24T02:11:20.560Z,8.30
2018-08-24T02:13:54.304Z,9.53
2018-08-24T02:16:22.852Z,9.00
2018-08-24T02:18:56.656Z,8.85
2018-08-24T02:21:30.584Z,9.45
2018-08-24T02:23:59.504Z,9.93
2018-08-24T02:26:28.719Z,10.03
2018-08-24T02:28:57.144Z,9.53
2018-08-24T02:31:25.595Z,9.40
2018-08-24T02:33:54.041Z,9.23
2018-08-24T02:36:22.844Z,8.53
2018-08-24T02:38:51.411Z,8.45
2018-08-24T02:41:19.803Z,8.50
2018-08-24T02:43:48.329Z,7.40
2018-08-24T02:46:16.768Z,8.00
2018-08-24T02:48:45.291Z,9.00
2018-08-24T02:51:13.867Z,8.18
2018-08-24T02:53:42.272Z,8.78
2018-08-24T02:56:10.672Z,8.80
2018-08-24T02:58:39.573Z,8.48
2018-08-24T03:01:08.232Z,8.98
2018-08-24T03:03:36.873Z,9.05
2018-08-24T03:06:05.272Z,9.38
2018-08-24T03:08:33.644Z,9.30
2018-08-24T03:11:02.336Z,9.95
2018-08-24T03:13:30.749Z,9.50
2018-08-24T03:15:59.272Z,9.43
2018-08-24T03:18:28.244Z,9.93
2018-08-24T03:20:56.752Z,8.75
2018-08-24T03:23:25.360Z,8.00
2018-08-24T03:25:53.767Z,5.78
2018-08-24T03:28:23.049Z,5.50
2018-08-24T03:30:52.325Z,5.30
2018-08-24T03:33:20.728Z,5.25
2018-08-24T03:35:49.841Z,5.08
2018-08-24T03:38:18.370Z,4.45
2018-08-24T03:40:46.977Z,3.55
2018-08-24T03:43:15.764Z,3.20
2018-08-24T03:45:44.359Z,3.40
2018-08-24T03:48:12.756Z,2.77
2018-08-24T03:50:41.181Z,2.70
2018-08-24T03:53:09.894Z,2.90
2018-08-24T03:55:39.013Z,2.45
2018-08-24T03:58:08.275Z,2.40
2018-08-24T04:00:37.500Z,2.00
2018-08-24T04:03:06.099Z,2.30
2018-08-24T04:05:34.545Z,2.10
2018-08-24T04:08:03.620Z,2.05
2018-08-24T04:10:32.020Z,1.90
2018-08-24T04:13:00.405Z,1.70
2018-08-24T04:15:28.833Z,2.00
2018-08-24T04:17:57.221Z,1.40
2018-08-24T04:20:26.248Z,1.55
2018-08-24T04:22:54.642Z,1.57
2018-08-24T04:25:23.092Z,1.40
2018-08-24T04:27:51.505Z,1.40
2018-08-24T04:30:19.901Z,1.50
2018-08-24T04:32:48.460Z,1.27
2018-08-24T04:35:16.955Z,1.50
2018-08-24T04:37:45.465Z,1.40
2018-08-24T04:40:13.910Z,1.60
2018-08-24T04:42:43.158Z,1.40
2018-08-24T04:45:11.580Z,1.40
2018-08-24T04:47:40.193Z,1.47
2018-08-24T04:50:08.844Z,1.82
2018-08-24T04:52:37.329Z,1.60
2018-08-24T04:55:05.864Z,1.75
2018-08-24T04:57:34.440Z,1.47
2018-08-24T05:00:02.826Z,1.60
2018-08-24T05:02:31.366Z,1.65
2018-08-24T05:04:59.827Z,1.42
2018-08-24T05:07:29.356Z,1.42
2018-08-24T05:09:57.823Z,1.45
2018-08-24T05:12:26.593Z,1.50
2018-08-24T05:14:55.861Z,1.37
2018-08-24T05:17:25.125Z,1.30
2018-08-24T05:19:53.498Z,1.50
2018-08-24T05:22:21.977Z,1.50
2018-08-24T05:24:50.469Z,1.30
2018-08-24T05:27:18.876Z,1.30
2018-08-24T05:29:47.650Z,1.70
2018-08-24T05:32:18.949Z,1.70
2018-08-24T05:34:47.432Z,1.37
2018-08-24T05:37:16.860Z,1.95
2018-08-24T05:39:45.237Z,1.50
2018-08-24T05:42:13.653Z,1.52
2018-08-24T05:44:42.185Z,1.65
2018-08-24T05:47:10.798Z,1.62
2018-08-24T05:49:39.407Z,2.17
2018-08-24T05:52:08.463Z,2.00
2018-08-24T05:54:36.961Z,2.05
2018-08-24T05:57:05.409Z,2.30
2018-08-24T05:59:33.921Z,1.75
2018-08-24T06:02:02.371Z,2.50
2018-08-24T06:04:30.952Z,2.60
2018-08-24T06:06:59.344Z,3.10
2018-08-24T06:09:27.943Z,3.05
2018-08-24T06:11:56.515Z,3.40
2018-08-24T06:14:25.028Z,3.80
2018-08-24T06:16:58.893Z,3.85
2018-08-24T06:19:27.300Z,4.15
2018-08-24T06:21:56.657Z,4.17
2018-08-24T06:24:25.205Z,4.03
2018-08-24T06:26:53.592Z,4.42
2018-08-24T06:29:22.245Z,4.20
2018-08-24T06:31:50.953Z,4.40
2018-08-24T06:34:19.348Z,4.00
2018-08-24T06:36:48.297Z,4.03
2018-08-24T06:39:16.889Z,4.17
2018-08-24T06:41:45.521Z,4.40
2018-08-24T06:44:14.870Z,4.58
2018-08-24T06:46:43.892Z,4.42
2018-08-24T06:49:12.281Z,4.37
2018-08-24T06:51:40.846Z,4.90
2018-08-24T06:54:09.265Z,4.75
2018-08-24T06:56:37.713Z,4.65
2018-08-24T06:59:06.373Z,5.12
2018-08-24T07:01:35.303Z,5.10
2018-08-24T07:04:04.167Z,4.45
2018-08-24T07:06:32.748Z,4.95
2018-08-24T07:09:01.212Z,5.10
2018-08-24T07:11:29.756Z,5.30
2018-08-24T07:13:58.281Z,5.00
2018-08-24T07:16:26.716Z,5.50
2018-08-24T07:18:55.100Z,5.40
2018-08-24T07:21:23.537Z,5.22
2018-08-24T07:23:52.034Z,4.80
2018-08-24T07:26:20.553Z,5.58
2018-08-24T07:28:49.083Z,4.95
2018-08-24T07:31:17.501Z,4.90
2018-08-24T07:33:46.145Z,5.17
2018-08-24T07:36:14.624Z,4.80
2018-08-24T07:38:43.064Z,4.95
2018-08-24T07:41:11.672Z,4.70
2018-08-24T07:43:41.020Z,5.08
2018-08-24T07:46:10.148Z,4.60
2018-08-24T07:48:38.672Z,5.10
2018-08-24T07:51:07.092Z,4.17
2018-08-24T07:53:35.558Z,5.00
2018-08-24T07:56:04.080Z,4.50
2018-08-24T07:58:32.625Z,4.72
2018-08-24T08:01:01.070Z,5.22
2018-08-24T08:03:29.573Z,4.33
2018-08-24T08:05:58.036Z,5.00
2018-08-24T08:08:26.812Z,4.95
2018-08-24T08:10:55.240Z,5.25
2018-08-24T08:13:23.713Z,5.00
2018-08-24T08:15:52.092Z,5.20
2018-08-24T08:18:20.631Z,5.03
2018-08-24T08:20:49.200Z,5.47
2018-08-24T08:23:17.780Z,4.92
2018-08-24T08:25:46.380Z,4.78
2018-08-24T08:28:14.944Z,4.80
2018-08-24T08:30:43.483Z,4.65
2018-08-24T08:33:12.088Z,5.08
2018-08-24T08:35:40.485Z,5.28
2018-08-24T08:38:09.099Z,4.37
2018-08-24T08:40:38.136Z,4.45
2018-08-24T08:43:06.792Z,4.95
2018-08-24T08:45:35.345Z,4.78
2018-08-24T08:48:03.901Z,4.78
2018-08-24T08:50:32.600Z,4.55
2018-08-24T08:53:01.024Z,4.05
2018-08-24T08:55:30.147Z,4.03
2018-08-24T08:57:58.913Z,3.87
2018-08-24T09:00:27.468Z,4.10
2018-08-24T09:02:56.120Z,4.20
2018-08-24T09:05:24.897Z,3.98
2018-08-24T09:07:53.484Z,3.98
2018-08-24T09:10:21.986Z,4.03
2018-08-24T09:12:50.437Z,4.33
2018-08-24T09:15:18.994Z,4.20
2018-08-24T09:17:52.936Z,4.05
2018-08-24T09:20:26.824Z,4.20
2018-08-24T09:23:00.561Z,4.05
2018-08-24T09:25:34.669Z,4.05
2018-08-24T09:28:08.422Z,4.30
2018-08-24T09:30:41.444Z,3.92
2018-08-24T09:33:09.953Z,4.22
2018-08-24T09:35:38.535Z,3.95
2018-08-24T09:38:06.992Z,3.80
2018-08-24T09:40:41.001Z,3.65
2018-08-24T09:43:15.719Z,4.22
2018-08-24T09:45:44.304Z,4.20
2018-08-24T09:48:17.980Z,4.17
2018-08-24T09:50:52.169Z,4.17
2018-08-24T09:53:26.058Z,4.30
2018-08-24T09:55:54.561Z,5.10
2018-08-24T09:58:23.646Z,4.60
2018-08-24T10:00:57.480Z,5.37
2018-08-24T10:03:31.500Z,5.10
2018-08-24T10:06:05.279Z,6.05
2018-08-24T10:08:39.076Z,5.80
2018-08-24T10:11:07.460Z,6.33
2018-08-24T10:13:35.949Z,7.25
2018-08-24T10:16:04.596Z,8.35
2018-08-24T10:18:33.115Z,9.18
2018-08-24T10:21:01.681Z,11.55
2018-08-24T10:23:30.233Z,14.07
2018-08-24T10:25:58.693Z,14.47
2018-08-24T10:28:27.117Z,14.60
2018-08-24T10:30:55.905Z,16.87
2018-08-24T10:33:24.357Z,6.55
2018-08-24T10:35:52.924Z,7.05
2018-08-24T10:38:21.324Z,6.28
2018-08-24T10:40:49.910Z,6.15
2018-08-24T10:43:18.241Z,6.45
2018-08-24T10:45:46.761Z,6.72
2018-08-24T10:48:15.297Z,7.25
2018-08-24T10:50:46.566Z,8.15
2018-08-24T10:53:14.962Z,8.93
2018-08-24T10:55:43.885Z,8.95
2018-08-24T10:58:12.301Z,9.88
2018-08-24T11:00:40.693Z,9.93
2018-08-24T11:03:10.244Z,11.10
2018-08-24T11:05:38.914Z,12.07
2018-08-24T11:08:07.653Z,12.82
2018-08-24T11:10:36.349Z,13.00
2018-08-24T11:13:04.939Z,14.40
2018-08-24T11:15:36.256Z,13.72
2018-08-24T11:18:06.865Z,14.33
2018-08-24T11:20:36.191Z,14.55
2018-08-24T11:23:04.938Z,14.50
2018-08-24T11:25:33.469Z,14.65
2018-08-24T11:28:01.889Z,14.87
2018-08-24T11:30:30.324Z,13.40
2018-08-24T11:32:59.369Z,13.43
2018-08-24T11:35:28.237Z,12.93
2018-08-24T11:37:56.868Z,12.90
2018-08-24T11:40:25.477Z,14.15
2018-08-24T11:42:54.110Z,12.07
2018-08-24T11:45:22.526Z,12.65
2018-08-24T11:47:51.374Z,12.78
2018-08-24T11:50:19.841Z,11.00
2018-08-24T11:52:48.268Z,9.28
2018-08-24T11:55:17.521Z,7.03
2018-08-24T11:57:45.917Z,6.50
2018-08-24T12:00:14.456Z,6.78
2018-08-24T12:02:43.003Z,5.87
2018-08-24T12:05:12.120Z,5.37
2018-08-24T12:07:40.616Z,5.08
2018-08-24T12:10:09.121Z,3.77
2018-08-24T12:12:37.762Z,4.10
2018-08-24T12:15:06.593Z,3.80
2018-08-24T12:17:36.694Z,3.60
2018-08-24T12:20:06.016Z,3.20
2018-08-24T12:22:34.477Z,2.92
2018-08-24T12:25:03.005Z,2.60
2018-08-24T12:27:31.694Z,2.22
2018-08-24T12:30:00.344Z,2.12
2018-08-24T12:32:28.955Z,2.22
2018-08-24T12:34:57.429Z,2.15
2018-08-24T12:37:25.994Z,1.90
2018-08-24T12:39:55.787Z,2.33
2018-08-24T12:42:24.417Z,2.10
2018-08-24T12:44:53.365Z,2.20
2018-08-24T12:47:21.791Z,2.00
2018-08-24T12:49:50.553Z,2.50
2018-08-24T12:52:19.041Z,2.00
2018-08-24T12:54:47.721Z,2.95
2018-08-24T12:57:16.208Z,2.20
2018-08-24T12:59:44.667Z,2.22
2018-08-24T13:02:13.082Z,2.22
2018-08-24T13:04:41.563Z,2.02
2018-08-24T13:07:10.181Z,2.05
2018-08-24T13:09:38.862Z,1.90
2018-08-24T13:12:07.608Z,2.27
2018-08-24T13:14:36.795Z,2.02
2018-08-24T13:17:05.661Z,1.90
2018-08-24T13:19:34.183Z,2.10
2018-08-24T13:22:03.317Z,2.10
2018-08-24T13:24:32.137Z,1.92
2018-08-24T13:27:00.874Z,1.60
2018-08-24T13:29:29.478Z,1.57
2018-08-24T13:31:57.887Z,1.62
2018-08-24T13:34:26.965Z,1.90
2018-08-24T13:36:55.492Z,2.10
2018-08-24T13:39:24.667Z,1.95
2018-08-24T13:41:53.249Z,1.85
2018-08-24T13:44:21.872Z,2.08
2018-08-24T13:46:50.429Z,1.90
2018-08-24T13:49:18.935Z,1.80
2018-08-24T13:51:47.604Z,1.87
2018-08-24T13:54:16.321Z,1.67
2018-08-24T13:56:44.938Z,2.33
2018-08-24T13:59:13.525Z,2.02
2018-08-24T14:01:43.113Z,1.57
2018-08-24T14:04:12.045Z,1.55
2018-08-24T14:06:40.526Z,1.80
2018-08-24T14:09:10.472Z,1.82
2018-08-24T14:11:38.921Z,1.70
2018-08-24T14:14:07.562Z,1.90
2018-08-24T14:16:36.713Z,1.65
2018-08-24T14:19:05.117Z,1.40
2018-08-24T14:21:33.662Z,2.00
2018-08-24T14:24:02.265Z,1.60
2018-08-24T14:26:30.988Z,1.50
2018-08-24T14:29:00.401Z,1.72
2018-08-24T14:31:29.317Z,1.55
2018-08-24T14:33:58.221Z,1.42
2018-08-24T14:36:27.242Z,1.52
2018-08-24T14:38:56.053Z,1.50
2018-08-24T14:41:25.010Z,1.95
2018-08-24T14:43:54.034Z,2.05
2018-08-24T14:46:22.611Z,1.85
2018-08-24T14:48:51.908Z,1.55
2018-08-24T14:51:20.601Z,1.67
2018-08-24T14:53:49.148Z,1.32
2018-08-24T14:56:17.662Z,1.60
2018-08-24T14:58:46.205Z,1.80
2018-08-24T15:01:14.843Z,1.72
2018-08-24T15:03:43.323Z,1.72
2018-08-24T15:06:11.905Z,1.62
2018-08-24T15:08:40.305Z,1.50
2018-08-24T15:11:09.880Z,1.37
2018-08-24T15:13:38.400Z,1.45
2018-08-24T15:16:06.900Z,1.27
2018-08-24T15:18:35.309Z,1.67
2018-08-24T15:21:03.884Z,1.30
2018-08-24T15:23:32.316Z,1.30
2018-08-24T15:26:01.395Z,1.40
2018-08-24T15:28:29.956Z,1.30
2018-08-24T15:30:58.373Z,1.55
2018-08-24T15:33:27.049Z,1.30
2018-08-24T15:35:55.500Z,1.30
2018-08-24T15:38:24.014Z,1.25
2018-08-24T15:40:52.624Z,1.20
2018-08-24T15:43:21.172Z,1.12
2018-08-24T15:45:49.793Z,1.62
2018-08-24T15:48:18.361Z,1.70
2018-08-24T15:50:47.537Z,1.47
2018-08-24T15:53:15.912Z,1.37
2018-08-24T15:55:45.126Z,1.60
2018-08-24T15:58:13.545Z,1.45
2018-08-24T16:00:42.064Z,1.40
2018-08-24T16:03:11.049Z,1.80
2018-08-24T16:05:39.600Z,1.32
2018-08-24T16:08:08.121Z,1.10
2018-08-24T16:16:22.252Z,1.50
